Union Mills, Iowa
Current Conditions -  °F | °C
As of 11:35 PM on Wednesday 22 Oct 2014 (Local Time) from KPEA Reporting Station
Broken Clouds Broken Clouds  
Wind Chill: 54°   Ceiling: 9000
Heat Index: 54°   Visibility: 10mi
Dew Point: 42°   Wind: 9mph
Humidity: 65%   Direction: 160°SSE
Pressure: 30.14"   Gusts: NA
Location:  41.465°N, 92.7016°W
Report Text: KPEA 230435Z AUTO 16008KT 10SM BKN090 12/06 A3014 RMK AO2 T01200056
Loading
Personal Weather Stations






























Interactive Weather Map
Tropical Storm Tracking
New forecast layout! Learn more

10-Day Weather Forecast

Advertisements
Track Severe Weather on mobile